Zele, Belgium
Current Conditions -  °F | °C
As of 2:20 PM on Saturday 20 Dec 2014 (Local Time) from EBAW Reporting Station
Broken Clouds Broken Clouds  
Wind Chill: 41°   Ceiling: 4600
Heat Index: 48°   Visibility: 6mi
Dew Point: 37°   Wind: 22mph
Humidity: 66%   Direction: 290°WNW
Pressure: 30.18"   Gusts: 37mph
Location:  51.07°N, 4.04°E
Report Text: EBAW 201320Z 29019G32KT 9999 SCT027 BKN046 09/03 Q1022 NOSIG
Loading
Personal Weather Stations






























Interactive Weather Map New forecast layout! Learn more

10-Day Weather Forecast

Advertisements
Track Severe Weather on mobile